Terminal Aerodrome Forecast
Issued by NWS Bismarck, ND

Home | Current Version | Previous Version | Graphics & Text | Print | Product List | Glossary On
Versions: 1 2 3 4 5 6 7 8 9 10 11 12
000
FTUS43 KBIS 272000 AAA
TAFBIS
TAF AMD
KBIS 272000Z 2720/2818 30013G22KT P6SM VCTS SCT060CB
     FM272200 33015G25KT P6SM SCT060
     FM280100 33005KT P6SM FEW050=

USA.gov is the U.S. government's official web portal to all federal, state and local government web resources and services.